Sevilla La Nueva, Spain
Current Conditions -  °F | °C
As of 3:30 PM on Sunday 23 Nov 2014 (Local Time) from LEVS Reporting Station
Scattered Clouds Scattered Clouds  
Wind Chill: 63°   Ceiling: Unl
Heat Index: 63°   Visibility: 6mi
Dew Point: 54°   Wind: 5mph
Humidity: 72%   Direction: 10°N
Pressure: 29.91"   Gusts: NA
Location:  40.35°N, 4.03°W
Report Text: LEVS 231430Z 01004KT 330V050 9999 FEW025 SCT040 17/12 Q1013
Loading
Personal Weather Stations






























Interactive Weather Map New forecast layout! Learn more

10-Day Weather Forecast

Advertisements
Track Severe Weather on mobile